createdAt,value
2022-11-28T00:01:38.889Z,100.00
2022-11-28T00:04:07.795Z,100.00
2022-11-28T00:06:54.504Z,100.00
2022-11-28T00:09:22.967Z,100.00
2022-11-28T00:11:54.924Z,100.00
2022-11-28T00:14:24.757Z,100.00
2022-11-28T00:16:52.281Z,100.00
2022-11-28T00:19:19.877Z,100.00
2022-11-28T00:21:48.202Z,100.00
2022-11-28T00:24:15.749Z,100.00
2022-11-28T00:26:43.116Z,100.00
2022-11-28T00:29:15.307Z,100.00
2022-11-28T00:31:43.882Z,100.00
2022-11-28T00:34:15.728Z,100.00
2022-11-28T00:36:46.243Z,100.00
2022-11-28T00:39:14.901Z,100.00
2022-11-28T00:41:43.722Z,100.00
2022-11-28T00:44:11.583Z,100.00
2022-11-28T00:46:39.196Z,100.00
2022-11-28T00:49:11.392Z,100.00
2022-11-28T00:51:38.929Z,100.00
2022-11-28T00:54:09.125Z,100.00
2022-11-28T00:56:39.746Z,100.00
2022-11-28T00:59:07.597Z,100.00
2022-11-28T01:01:38.491Z,100.00
2022-11-28T01:04:08.765Z,100.00
2022-11-28T01:06:40.069Z,100.00
2022-11-28T01:09:12.607Z,100.00
2022-11-28T01:11:41.154Z,100.00
2022-11-28T01:14:10.386Z,100.00
2022-11-28T01:16:40.238Z,100.00
2022-11-28T01:19:08.392Z,100.00
2022-11-28T01:21:38.246Z,100.00
2022-11-28T01:24:05.818Z,100.00
2022-11-28T01:26:33.613Z,100.00
2022-11-28T01:29:03.956Z,100.00
2022-11-28T01:31:32.760Z,100.00
2022-11-28T01:34:00.314Z,100.00
2022-11-28T01:36:28.186Z,100.00
2022-11-28T01:38:55.720Z,100.00
2022-11-28T01:41:27.898Z,100.00
2022-11-28T01:44:09.052Z,100.00
2022-11-28T01:46:37.745Z,100.00
2022-11-28T01:49:38.305Z,100.00
2022-11-28T01:52:11.564Z,100.00
2022-11-28T01:54:42.428Z,100.00
2022-11-28T01:57:22.070Z,100.00
2022-11-28T01:59:57.651Z,100.00
2022-11-28T02:02:45.751Z,100.00
2022-11-28T02:05:13.683Z,100.00
2022-11-28T02:07:42.158Z,100.00
2022-11-28T02:10:13.311Z,100.00
2022-11-28T02:13:07.910Z,100.00
2022-11-28T02:16:13.715Z,100.00
2022-11-28T02:18:59.669Z,100.00
2022-11-28T02:21:32.740Z,100.00
2022-11-28T02:24:23.935Z,100.00
2022-11-28T02:27:33.031Z,100.00
2022-11-28T02:30:21.418Z,100.00
2022-11-28T02:33:15.375Z,100.00
2022-11-28T02:35:54.511Z,100.00
2022-11-28T02:38:54.860Z,100.00
2022-11-28T02:41:46.508Z,100.00
2022-11-28T02:44:22.248Z,100.00
2022-11-28T02:47:19.231Z,100.00
2022-11-28T02:49:58.943Z,100.00
2022-11-28T02:52:36.147Z,100.00
2022-11-28T02:55:05.447Z,100.00
2022-11-28T02:57:47.197Z,100.00
2022-11-28T03:00:35.807Z,100.00
2022-11-28T03:03:28.790Z,100.00
2022-11-28T03:05:59.238Z,100.00
2022-11-28T03:08:35.779Z,99.93
2022-11-28T03:11:12.195Z,99.90
2022-11-28T03:14:03.147Z,99.81
2022-11-28T03:16:47.026Z,100.00
2022-11-28T03:19:34.696Z,99.86
2022-11-28T03:22:59.270Z,99.77
2022-11-28T03:25:59.109Z,99.74
2022-11-28T03:28:43.548Z,99.91
2022-11-28T03:31:17.200Z,99.84
2022-11-28T03:33:52.985Z,99.74
2022-11-28T03:36:30.069Z,99.56
2022-11-28T03:39:11.150Z,99.67
2022-11-28T03:41:47.043Z,99.70
2022-11-28T03:44:21.645Z,99.69
2022-11-28T03:46:50.875Z,99.70
2022-11-28T03:49:25.178Z,99.63
2022-11-28T03:52:07.293Z,99.47
2022-11-28T03:54:53.966Z,99.46
2022-11-28T03:57:37.464Z,99.64
2022-11-28T04:00:07.498Z,99.56
2022-11-28T04:02:49.653Z,99.56
2022-11-28T04:05:20.054Z,99.53
2022-11-28T04:07:52.511Z,99.26
2022-11-28T04:10:38.102Z,99.31
2022-11-28T04:13:25.470Z,99.32
2022-11-28T04:15:58.864Z,99.29
2022-11-28T04:18:35.391Z,99.34
2022-11-28T04:21:41.492Z,99.52
2022-11-28T04:24:12.972Z,99.83
2022-11-28T04:26:48.021Z,99.98
2022-11-28T04:29:18.573Z,99.51
2022-11-28T04:31:51.690Z,99.85
2022-11-28T04:34:20.420Z,99.76
2022-11-28T04:36:49.959Z,99.85
2022-11-28T04:39:25.411Z,99.36
2022-11-28T04:42:08.732Z,99.46
2022-11-28T04:45:02.903Z,99.76
2022-11-28T04:47:31.432Z,99.29
2022-11-28T04:50:01.595Z,99.01
2022-11-28T04:52:59.390Z,98.89
2022-11-28T04:55:36.081Z,99.63
2022-11-28T04:58:08.262Z,100.00
2022-11-28T05:00:37.954Z,100.00
2022-11-28T05:03:06.750Z,100.00
2022-11-28T05:05:46.667Z,100.00
2022-11-28T05:08:14.714Z,100.00
2022-11-28T05:10:42.681Z,100.00
2022-11-28T05:13:10.384Z,100.00
2022-11-28T05:15:40.423Z,100.00
2022-11-28T05:18:07.933Z,100.00
2022-11-28T05:20:38.158Z,100.00
2022-11-28T05:23:06.921Z,100.00
2022-11-28T05:25:38.910Z,100.00
2022-11-28T05:28:06.751Z,100.00
2022-11-28T05:30:34.521Z,100.00
2022-11-28T05:33:03.009Z,100.00
2022-11-28T05:35:30.812Z,100.00
2022-11-28T05:37:58.428Z,100.00
2022-11-28T05:40:25.717Z,100.00
2022-11-28T05:42:53.242Z,100.00
2022-11-28T05:45:20.737Z,100.00
2022-11-28T05:47:48.236Z,100.00
2022-11-28T05:50:15.804Z,100.00
2022-11-28T05:52:43.350Z,100.00
2022-11-28T05:55:10.897Z,100.00
2022-11-28T05:57:40.881Z,100.00
2022-11-28T06:00:08.896Z,100.00
2022-11-28T06:02:39.257Z,100.00
2022-11-28T06:05:27.347Z,100.00
2022-11-28T06:07:57.834Z,100.00
2022-11-28T06:10:26.514Z,100.00
2022-11-28T06:12:53.818Z,100.00
2022-11-28T06:15:22.626Z,100.00
2022-11-28T06:17:49.905Z,100.00
2022-11-28T06:20:17.483Z,100.00
2022-11-28T06:22:49.191Z,100.00
2022-11-28T06:25:18.814Z,100.00
2022-11-28T06:27:49.316Z,99.54
2022-11-28T06:30:17.105Z,95.45
2022-11-28T06:32:44.567Z,94.11
2022-11-28T06:35:12.933Z,94.43
2022-11-28T06:37:40.658Z,94.72
2022-11-28T06:40:08.675Z,94.61
2022-11-28T06:42:37.243Z,94.72
2022-11-28T06:45:06.065Z,94.72
2022-11-28T06:47:35.733Z,94.94
2022-11-28T06:50:03.179Z,94.60
2022-11-28T06:52:31.764Z,95.10
2022-11-28T06:54:59.195Z,94.32
2022-11-28T06:57:26.933Z,93.96
2022-11-28T06:59:54.452Z,93.61
2022-11-28T07:02:25.093Z,93.72
2022-11-28T07:04:52.883Z,93.96
2022-11-28T07:07:21.712Z,93.41
2022-11-28T07:09:52.773Z,93.69
2022-11-28T07:12:20.933Z,93.40
2022-11-28T07:14:53.942Z,93.95
2022-11-28T07:17:23.606Z,94.03
2022-11-28T07:19:55.168Z,94.01
2022-11-28T07:22:27.704Z,94.09
2022-11-28T07:24:55.232Z,94.01
2022-11-28T07:27:22.596Z,94.22
2022-11-28T07:29:50.477Z,94.52
2022-11-28T07:32:17.956Z,94.60
2022-11-28T07:34:49.877Z,94.85
2022-11-28T07:37:22.688Z,95.09
2022-11-28T07:39:49.999Z,93.83
2022-11-28T07:42:17.657Z,91.70
2022-11-28T07:44:56.256Z,92.39
2022-11-28T07:47:24.821Z,92.88
2022-11-28T07:49:52.487Z,93.90
2022-11-28T07:52:20.059Z,95.24
2022-11-28T07:54:51.785Z,96.38
2022-11-28T07:57:19.226Z,96.95
2022-11-28T07:59:46.677Z,97.95
2022-11-28T08:02:16.348Z,98.86
2022-11-28T08:04:49.606Z,99.47
2022-11-28T08:07:19.858Z,100.00
2022-11-28T08:09:47.715Z,100.00
2022-11-28T08:12:15.052Z,100.00
2022-11-28T08:14:45.352Z,100.00
2022-11-28T08:17:12.938Z,100.00
2022-11-28T08:19:40.487Z,100.00
2022-11-28T08:22:10.697Z,100.00
2022-11-28T08:24:38.994Z,100.00
2022-11-28T08:27:08.815Z,100.00
2022-11-28T08:29:36.844Z,100.00
2022-11-28T08:32:06.661Z,100.00
2022-11-28T08:34:34.256Z,100.00
2022-11-28T08:37:01.966Z,100.00
2022-11-28T08:39:29.547Z,100.00
2022-11-28T08:41:57.767Z,100.00
2022-11-28T08:44:30.372Z,100.00
2022-11-28T08:46:59.063Z,100.00
2022-11-28T08:49:28.588Z,100.00
2022-11-28T08:51:56.184Z,100.00
2022-11-28T08:54:23.564Z,100.00
2022-11-28T08:56:51.061Z,100.00
2022-11-28T08:59:18.712Z,100.00
2022-11-28T09:01:46.073Z,100.00
2022-11-28T09:04:13.598Z,100.00
2022-11-28T09:06:41.356Z,100.00
2022-11-28T09:09:12.012Z,100.00
2022-11-28T09:11:39.610Z,100.00
2022-11-28T09:14:07.850Z,100.00
2022-11-28T09:16:35.587Z,100.00
2022-11-28T09:19:03.149Z,100.00
2022-11-28T09:21:30.844Z,100.00
2022-11-28T09:23:58.266Z,100.00
2022-11-28T09:26:26.138Z,100.00
2022-11-28T09:28:54.661Z,100.00
2022-11-28T09:31:22.762Z,100.00
2022-11-28T09:33:50.732Z,100.00
2022-11-28T09:36:21.025Z,100.00
2022-11-28T09:38:48.881Z,100.00
2022-11-28T09:41:31.979Z,100.00
2022-11-28T09:44:10.474Z,100.00
2022-11-28T09:46:41.623Z,100.00
2022-11-28T09:49:25.730Z,100.00
2022-11-28T09:52:01.794Z,100.00
2022-11-28T09:54:44.963Z,97.07
2022-11-28T09:57:21.509Z,93.53
2022-11-28T09:59:51.949Z,91.68
2022-11-28T10:02:29.526Z,92.39
2022-11-28T10:05:03.064Z,93.68
2022-11-28T10:07:57.428Z,95.31
2022-11-28T10:10:55.448Z,95.69
2022-11-28T10:14:07.095Z,96.97
2022-11-28T10:16:53.422Z,97.80
2022-11-28T10:19:53.917Z,98.47
2022-11-28T10:22:48.869Z,98.44
2022-11-28T10:25:24.619Z,98.39
2022-11-28T10:27:52.843Z,98.52
2022-11-28T10:30:25.993Z,98.54
2022-11-28T10:33:04.805Z,98.15
2022-11-28T10:35:41.259Z,98.42
2022-11-28T10:38:13.795Z,98.47
2022-11-28T10:41:06.933Z,98.44
2022-11-28T10:43:53.064Z,98.69
2022-11-28T10:46:32.027Z,99.21
2022-11-28T10:49:24.164Z,99.40
2022-11-28T10:51:51.898Z,100.00
2022-11-28T10:54:56.952Z,100.00
2022-11-28T10:57:33.639Z,100.00
2022-11-28T11:00:13.890Z,100.00
2022-11-28T11:02:56.797Z,100.00
2022-11-28T11:05:32.869Z,100.00
2022-11-28T11:08:11.608Z,100.00
2022-11-28T11:10:52.265Z,100.00
2022-11-28T11:13:26.562Z,100.00
2022-11-28T11:16:04.455Z,100.00
2022-11-28T11:18:36.411Z,100.00
2022-11-28T11:21:19.994Z,100.00
2022-11-28T11:23:49.036Z,100.00
2022-11-28T11:26:27.642Z,100.00
2022-11-28T11:28:56.454Z,100.00
2022-11-28T11:31:32.110Z,100.00
2022-11-28T11:34:12.562Z,100.00
2022-11-28T11:36:40.156Z,100.00
2022-11-28T11:39:10.889Z,100.00
2022-11-28T11:41:40.674Z,100.00
2022-11-28T11:44:14.380Z,100.00
2022-11-28T11:46:53.518Z,100.00
2022-11-28T11:49:34.672Z,100.00
2022-11-28T11:52:23.489Z,100.00
2022-11-28T11:54:57.424Z,99.83
2022-11-28T11:57:34.850Z,99.18
2022-11-28T12:00:13.567Z,97.59
2022-11-28T12:02:49.392Z,95.45
2022-11-28T12:05:20.484Z,94.03
2022-11-28T12:07:49.965Z,92.16
2022-11-28T12:10:22.079Z,91.90
2022-11-28T12:12:50.933Z,90.54
2022-11-28T12:15:46.097Z,89.24
2022-11-28T12:18:45.813Z,87.72
2022-11-28T12:21:14.570Z,86.43
2022-11-28T12:24:07.027Z,85.77
2022-11-28T12:26:50.167Z,85.76
2022-11-28T12:29:27.236Z,86.22
2022-11-28T12:32:03.761Z,86.88
2022-11-28T12:35:03.210Z,87.49
2022-11-28T12:38:10.196Z,88.05
2022-11-28T12:40:37.622Z,88.50
2022-11-28T12:43:33.006Z,88.87
2022-11-28T12:46:23.919Z,89.30
2022-11-28T12:49:18.204Z,89.99
2022-11-28T12:51:58.406Z,90.29
2022-11-28T12:55:04.881Z,90.58
2022-11-28T12:57:53.714Z,91.08
2022-11-28T13:00:24.637Z,91.49
2022-11-28T13:03:13.012Z,91.67
2022-11-28T13:05:50.991Z,91.74
2022-11-28T13:08:44.744Z,91.73
2022-11-28T13:11:26.574Z,91.93
2022-11-28T13:14:20.355Z,92.24
2022-11-28T13:16:53.366Z,92.42
2022-11-28T13:19:36.083Z,92.81
2022-11-28T13:22:23.780Z,92.64
2022-11-28T13:25:23.733Z,92.57
2022-11-28T13:28:17.561Z,92.81
2022-11-28T13:31:05.320Z,91.64
2022-11-28T13:33:58.556Z,91.72
2022-11-28T13:39:48.281Z,91.96
2022-11-28T13:43:07.654Z,92.12
2022-11-28T13:45:46.009Z,92.45
2022-11-28T13:51:32.087Z,92.58
2022-11-28T13:54:18.987Z,92.79
2022-11-28T13:56:48.744Z,92.93
2022-11-28T13:59:21.273Z,92.78
2022-11-28T14:01:58.811Z,92.68
2022-11-28T14:04:28.081Z,92.52
2022-11-28T14:07:20.137Z,92.62
2022-11-28T14:10:09.607Z,92.45
2022-11-28T14:13:28.050Z,93.14
2022-11-28T14:16:24.950Z,92.81
2022-11-28T14:19:04.736Z,93.10
2022-11-28T14:22:05.095Z,92.64
2022-11-28T14:25:11.726Z,92.84
2022-11-28T14:27:47.187Z,92.83
2022-11-28T14:30:37.747Z,92.48
2022-11-28T14:33:16.922Z,92.58
2022-11-28T14:35:50.912Z,92.66
2022-11-28T14:38:35.646Z,92.85
2022-11-28T14:41:15.360Z,92.83
2022-11-28T14:43:47.611Z,92.92
2022-11-28T14:46:22.992Z,92.81
2022-11-28T14:48:59.862Z,92.94
2022-11-28T14:51:46.144Z,93.02
2022-11-28T14:54:27.299Z,92.46
2022-11-28T14:56:59.839Z,92.61
2022-11-28T14:59:34.132Z,93.18
2022-11-28T15:02:01.699Z,93.66
2022-11-28T15:05:03.186Z,93.88
2022-11-28T15:07:41.486Z,94.76
2022-11-28T15:10:20.539Z,95.27
2022-11-28T15:12:48.427Z,96.11
2022-11-28T15:15:17.834Z,96.12
2022-11-28T15:17:51.355Z,96.91
2022-11-28T15:20:48.481Z,97.53
2022-11-28T15:23:28.874Z,98.14
2022-11-28T15:25:58.045Z,98.11
2022-11-28T15:28:28.540Z,97.98
2022-11-28T15:30:59.338Z,98.47
2022-11-28T15:33:29.948Z,98.80
2022-11-28T15:36:04.385Z,98.89
2022-11-28T15:38:32.370Z,98.97
2022-11-28T15:41:02.325Z,98.89
2022-11-28T15:43:31.742Z,99.04
2022-11-28T15:46:02.822Z,98.86
2022-11-28T15:48:59.013Z,98.50
2022-11-28T15:51:31.164Z,98.66
2022-11-28T15:54:00.113Z,98.31
2022-11-28T15:56:28.257Z,98.37
2022-11-28T15:58:56.699Z,98.47
2022-11-28T16:01:28.369Z,98.34
2022-11-28T16:04:05.742Z,98.30
2022-11-28T16:06:40.040Z,98.77
2022-11-28T16:09:17.661Z,99.13
2022-11-28T16:11:52.102Z,98.95
2022-11-28T16:14:33.352Z,99.18
2022-11-28T16:17:12.424Z,99.32
2022-11-28T16:19:44.242Z,99.97
2022-11-28T16:22:22.888Z,99.93
2022-11-28T16:25:01.201Z,100.00
2022-11-28T16:27:31.905Z,100.00
2022-11-28T16:30:00.807Z,100.00
2022-11-28T16:32:40.026Z,100.00
2022-11-28T16:35:12.493Z,100.00
2022-11-28T16:37:42.235Z,100.00
2022-11-28T16:40:23.233Z,100.00
2022-11-28T16:42:57.387Z,100.00
2022-11-28T16:45:33.302Z,100.00
2022-11-28T16:48:19.350Z,100.00
2022-11-28T16:51:02.169Z,100.00
2022-11-28T16:53:41.654Z,100.00
2022-11-28T16:56:27.178Z,100.00
2022-11-28T16:59:16.834Z,100.00
2022-11-28T17:01:47.115Z,100.00
2022-11-28T17:04:27.492Z,100.00
2022-11-28T17:07:05.692Z,100.00
2022-11-28T17:09:34.245Z,100.00
2022-11-28T17:12:07.489Z,100.00
2022-11-28T17:14:37.555Z,100.00
2022-11-28T17:17:15.748Z,100.00
2022-11-28T17:19:44.333Z,100.00
2022-11-28T17:22:17.961Z,100.00
2022-11-28T17:24:46.660Z,100.00
2022-11-28T17:27:15.408Z,100.00
2022-11-28T17:29:43.423Z,100.00
2022-11-28T17:32:13.535Z,100.00
2022-11-28T17:34:42.525Z,100.00
2022-11-28T17:37:10.758Z,100.00
2022-11-28T17:39:38.604Z,100.00
2022-11-28T17:42:06.678Z,100.00
2022-11-28T17:44:36.366Z,100.00
2022-11-28T17:47:05.163Z,100.00
2022-11-28T17:49:33.771Z,100.00
2022-11-28T17:52:01.290Z,100.00
2022-11-28T17:54:29.789Z,100.00
2022-11-28T17:56:58.101Z,100.00
2022-11-28T17:59:27.995Z,100.00
2022-11-28T18:01:56.003Z,100.00
2022-11-28T18:04:25.043Z,100.00
2022-11-28T18:06:52.780Z,100.00
2022-11-28T18:09:20.595Z,100.00
2022-11-28T18:11:48.249Z,100.00
2022-11-28T18:14:19.513Z,100.00
2022-11-28T18:16:47.850Z,100.00
2022-11-28T18:19:15.694Z,100.00
2022-11-28T18:21:43.251Z,100.00
2022-11-28T18:24:11.077Z,100.00
2022-11-28T18:26:39.047Z,100.00
2022-11-28T18:29:11.121Z,100.00
2022-11-28T18:31:38.722Z,100.00
2022-11-28T18:34:08.117Z,100.00
2022-11-28T18:36:37.753Z,100.00
2022-11-28T18:39:09.431Z,100.00
2022-11-28T18:41:37.177Z,100.00
2022-11-28T18:44:05.649Z,100.00
2022-11-28T18:46:35.027Z,100.00
2022-11-28T18:49:03.484Z,100.00
2022-11-28T18:51:35.140Z,100.00
2022-11-28T18:54:06.928Z,100.00
2022-11-28T18:56:35.818Z,100.00
2022-11-28T18:59:04.367Z,100.00
2022-11-28T19:01:34.255Z,100.00
2022-11-28T19:04:08.119Z,100.00
2022-11-28T19:06:43.381Z,100.00
2022-11-28T19:09:15.226Z,100.00
2022-11-28T19:11:43.754Z,100.00
2022-11-28T19:14:21.830Z,100.00
2022-11-28T19:16:49.683Z,100.00
2022-11-28T19:19:18.425Z,100.00
2022-11-28T19:21:48.681Z,100.00
2022-11-28T19:24:16.467Z,100.00
2022-11-28T19:26:44.137Z,100.00
2022-11-28T19:29:11.842Z,100.00
2022-11-28T19:31:40.763Z,100.00
2022-11-28T19:34:17.446Z,100.00
2022-11-28T19:36:51.135Z,100.00
2022-11-28T19:39:24.325Z,100.00
2022-11-28T19:41:54.017Z,100.00
2022-11-28T19:44:30.750Z,100.00
2022-11-28T19:46:58.766Z,100.00
2022-11-28T19:49:26.437Z,100.00
2022-11-28T19:51:54.537Z,100.00
2022-11-28T19:54:22.286Z,100.00
2022-11-28T19:56:50.895Z,100.00
2022-11-28T19:59:19.400Z,100.00
2022-11-28T20:01:49.892Z,100.00
2022-11-28T20:04:20.243Z,100.00
2022-11-28T20:06:47.986Z,100.00
2022-11-28T20:09:15.676Z,100.00
2022-11-28T20:11:45.108Z,100.00
2022-11-28T20:14:16.396Z,100.00
2022-11-28T20:16:44.650Z,100.00
2022-11-28T20:19:15.133Z,100.00
2022-11-28T20:21:46.329Z,100.00
2022-11-28T20:24:14.786Z,100.00
2022-11-28T20:26:43.604Z,100.00
2022-11-28T20:29:14.383Z,100.00
2022-11-28T20:31:46.334Z,100.00
2022-11-28T20:34:17.682Z,100.00
2022-11-28T20:36:50.200Z,100.00
2022-11-28T20:39:17.662Z,100.00
2022-11-28T20:41:45.066Z,100.00
2022-11-28T20:44:12.682Z,100.00
2022-11-28T20:46:40.183Z,100.00
2022-11-28T20:49:07.812Z,100.00
2022-11-28T20:51:35.848Z,100.00
2022-11-28T20:54:05.869Z,100.00
2022-11-28T20:56:58.326Z,100.00
2022-11-28T20:59:29.082Z,100.00
2022-11-28T21:01:56.587Z,100.00
2022-11-28T21:04:24.008Z,100.00
2022-11-28T21:06:51.853Z,100.00
2022-11-28T21:09:20.568Z,100.00
2022-11-28T21:11:58.509Z,100.00
2022-11-28T21:14:28.329Z,100.00
2022-11-28T21:16:57.054Z,100.00
2022-11-28T21:19:24.932Z,100.00
2022-11-28T21:21:52.606Z,100.00
2022-11-28T21:24:20.001Z,100.00
2022-11-28T21:26:53.969Z,100.00
2022-11-28T21:29:23.615Z,100.00
2022-11-28T21:31:51.294Z,100.00
2022-11-28T21:34:19.513Z,100.00
2022-11-28T21:36:47.292Z,100.00
2022-11-28T21:39:20.156Z,100.00
2022-11-28T21:41:48.119Z,100.00
2022-11-28T21:44:15.767Z,100.00
2022-11-28T21:46:43.545Z,100.00
2022-11-28T21:49:12.483Z,100.00
2022-11-28T21:51:40.852Z,100.00
2022-11-28T21:54:11.104Z,100.00
2022-11-28T21:56:38.665Z,100.00
2022-11-28T21:59:06.529Z,100.00
2022-11-28T22:01:34.139Z,100.00
2022-11-28T22:04:03.033Z,100.00
2022-11-28T22:06:32.651Z,100.00
2022-11-28T22:09:08.305Z,100.00
2022-11-28T22:11:38.129Z,100.00
2022-11-28T22:14:05.755Z,100.00
2022-11-28T22:16:33.366Z,100.00
2022-11-28T22:19:01.425Z,100.00
2022-11-28T22:21:52.313Z,100.00
2022-11-28T22:24:16.885Z,100.00
2022-11-28T22:26:44.707Z,100.00
2022-11-28T22:29:14.339Z,100.00
2022-11-28T22:31:42.120Z,100.00
2022-11-28T22:34:10.405Z,100.00
2022-11-28T22:36:38.219Z,100.00
2022-11-28T22:39:06.298Z,100.00
2022-11-28T22:41:34.038Z,100.00
2022-11-28T22:44:02.866Z,100.00
2022-11-28T22:46:32.001Z,100.00
2022-11-28T22:49:01.212Z,100.00
2022-11-28T22:51:29.899Z,100.00
2022-11-28T22:53:59.951Z,100.00
2022-11-28T22:56:30.367Z,100.00
2022-11-28T22:59:00.206Z,100.00
2022-11-28T23:01:30.586Z,100.00
2022-11-28T23:04:01.577Z,100.00
2022-11-28T23:06:33.501Z,100.00
2022-11-28T23:09:04.173Z,100.00
2022-11-28T23:16:22.573Z,100.00
2022-11-28T23:18:53.636Z,100.00
2022-11-28T23:21:23.604Z,100.00
2022-11-28T23:23:52.350Z,100.00
2022-11-28T23:26:22.452Z,100.00
2022-11-28T23:28:50.999Z,100.00
2022-11-28T23:31:24.642Z,100.00
2022-11-28T23:33:53.315Z,100.00
2022-11-28T23:36:27.371Z,100.00
2022-11-28T23:39:00.376Z,100.00
2022-11-28T23:41:29.351Z,100.00
2022-11-28T23:43:57.558Z,100.00
2022-11-28T23:46:26.111Z,100.00
2022-11-28T23:48:53.990Z,100.00
2022-11-28T23:51:23.414Z,100.00
2022-11-28T23:53:51.398Z,100.00
2022-11-28T23:56:21.586Z,100.00
2022-11-28T23:58:52.411Z,100.00
